Oldham, SD (57051)

03:27 CST le 29 novembre 2014 (GMT -0600)
Arlington, SD | Change Station
CLOSE
Current Station
Stations météorologiques personnelles
Location: Arlington, SD
Altitude: 1808 ft
Stations météo à proximité

Alt. 1808 ft 44.38 °N, 97.08 °W | Updated 10 seconds ago

Ciel dégagé
Ciel dégagé
22.2 ° F
Paraît 22 ° F
N
0.0
Vent Variable Vent de Sud
Gusts 0.0 mph

Aujourd'hui
Haut(e) -- | Bas -- ° F
--% Risque de précip.
Hier
Haut(e) -- | Bas -- ° F
Precip. -- pouce
7:42 AM 4:52 PM
Lune montante, 50% visible
Pression 29.45 pouce
Visibilité 10.0 Miles terrestres
Nuages Ciel dégagé
Refroidissement éolien 22 ° F
Point de rosée 21 ° F
Humidité 94%
Précipitations 0.00 pouce
Profondeur de la couche neigeuse Non disponible.
UV 0.0 sur 12
Pollen .10 sur 12
Qualité de l'air Non disponible.
Flu Activity Non disponible.
METAR KMDS 290910Z AUTO 15005KT 10SM CLR M06/M06 A2945 RMK AO2

More Conditions Fewer Conditions

Pression 29.45 pouce
Visibilité 10.0 Miles terrestres
Nuages Ciel dégagé
Refroidissement éolien 22 ° F
Point de rosée 21 ° F
Humidité 94%
Précipitations 0.00 pouce
Profondeur de la couche neigeuse Non disponible.
UV 0.0 sur 12
Pollen .10 sur 12
Qualité de l'air Non disponible.
Flu Activity Non disponible.
METAR KMDS 290910Z AUTO 15005KT 10SM CLR M06/M06 A2945 RMK AO2

More Conditions Fewer Conditions

10-Day Weather Forecast

Almanac

Astronomie

Nov. 29, 2014 Lever Coucher
Temps réel
Crépuscule civil
Crépuscule nautique
Crépuscule astronomique
Lune
Durée de lumière visible
Longueur du jour
Tomorrow will be .
, % of the Moon is Illuminated

Extrêmes aujourd'hui

State Highs State Lows

Community

WunderPhotos

Upload Photos

1,774,442 Photos téléchargées !

WunderBlogs® & News

Nearby

Qualité de l'air

  Qualité de l'air Indice de la qualité de l'air Polluant
Not available.

Épaisseur de neige

Station Depth Altitude

Activité sismique

Ville Distance Mag. Time & Date
Minimum magnitude displayed is 2.5.

Températures des eaux côtières

Lieu Température

Stations météo à proximité